Time,TemperatureF,DewpointF,PressureIn,WindDirection,WindDirectionDegrees,WindSpeedMPH,WindSpeedGustMPH,Humidity,HourlyPrecipIn,Conditions,Clouds,dailyrainin,SoftwareType,DateUTC
2013-07-23 00:00:00,73.0,66.5,29.74,South,180,0.0,0.0,80,0.00,,---,0.00,VWS V14.00,2013-07-23 04:00:00,
2013-07-23 00:01:00,73.0,66.5,29.74,South,180,0.0,0.0,80,0.00,,---,0.00,VWS V14.00,2013-07-23 04:01:00,
2013-07-23 00:02:00,73.0,66.5,29.74,South,180,0.0,0.0,80,0.00,,---,0.00,VWS V14.00,2013-07-23 04:02:00,
2013-07-23 00:07:00,73.0,66.5,29.74,SSE,158,0.0,1.3,80,0.00,,---,0.00,VWS V14.00,2013-07-23 04:07:00,
2013-07-23 00:12:00,73.0,66.5,29.74,SSE,158,0.0,0.0,80,0.00,,---,0.00,VWS V14.00,2013-07-23 04:12:00,
2013-07-23 00:17:00,73.0,66.5,29.74,South,180,0.0,0.0,80,0.00,,---,0.00,VWS V14.00,2013-07-23 04:17:00,
2013-07-23 00:22:00,72.9,66.3,29.74,SE,135,0.0,1.3,80,0.00,,---,0.00,VWS V14.00,2013-07-23 04:22:00,
2013-07-23 00:27:00,72.9,66.7,29.74,SE,135,0.0,0.0,81,0.00,,---,0.00,VWS V14.00,2013-07-23 04:27:00,
2013-07-23 00:32:00,72.9,66.7,29.74,South,180,0.0,0.0,81,0.00,,---,0.00,VWS V14.00,2013-07-23 04:32:00,
2013-07-23 00:37:00,72.9,66.7,29.74,SE,135,0.0,0.0,81,0.00,,---,0.00,VWS V14.00,2013-07-23 04:37:00,
2013-07-23 00:42:00,72.9,66.7,29.74,South,180,0.0,1.1,81,0.00,,---,0.00,VWS V14.00,2013-07-23 04:42:00,
2013-07-23 00:47:00,72.9,66.7,29.74,South,180,0.0,0.0,81,0.00,,---,0.00,VWS V14.00,2013-07-23 04:47:00,
2013-07-23 00:52:00,72.9,66.7,29.74,South,180,0.0,0.0,81,0.00,,---,0.00,VWS V14.00,2013-07-23 04:52:00,
2013-07-23 00:57:00,72.7,66.5,29.74,SE,135,0.0,2.0,81,0.00,,---,0.00,VWS V14.00,2013-07-23 04:57:00,
2013-07-23 01:02:00,72.7,66.5,29.74,WSW,248,0.0,0.0,81,0.00,,---,0.00,VWS V14.00,2013-07-23 05:02:00,
2013-07-23 01:07:00,72.7,66.5,29.74,South,180,0.0,0.0,81,0.00,,---,0.00,VWS V14.00,2013-07-23 05:07:00,
2013-07-23 01:13:00,72.7,66.5,29.74,South,180,0.0,0.0,81,0.00,,---,0.00,VWS V14.00,2013-07-23 05:13:00,
2013-07-23 01:18:00,72.5,66.3,29.74,South,180,0.0,0.0,81,0.00,,---,0.00,VWS V14.00,2013-07-23 05:18:00,
2013-07-23 01:23:00,72.5,66.3,29.74,SSW,202,0.0,0.0,81,0.00,,---,0.00,VWS V14.00,2013-07-23 05:23:00,
2013-07-23 01:28:00,72.3,66.5,29.74,SSW,202,0.0,0.0,82,0.00,,---,0.00,VWS V14.00,2013-07-23 05:28:00,
2013-07-23 01:33:00,72.3,66.2,29.74,WSW,248,0.0,0.0,81,0.00,,---,0.00,VWS V14.00,2013-07-23 05:33:00,
2013-07-23 01:38:00,72.1,66.0,29.71,WSW,248,0.0,0.0,81,0.00,,---,0.00,VWS V14.00,2013-07-23 05:38:00,
2013-07-23 01:43:00,72.1,66.3,29.71,SW,225,0.0,2.0,82,0.00,,---,0.00,VWS V14.00,2013-07-23 05:43:00,
2013-07-23 01:48:00,72.0,66.2,29.71,West,270,2.0,2.0,82,0.00,,---,0.00,VWS V14.00,2013-07-23 05:48:00,
2013-07-23 01:53:00,72.0,66.2,29.71,West,270,0.9,0.9,82,0.00,,---,0.00,VWS V14.00,2013-07-23 05:53:00,
2013-07-23 01:58:00,71.8,66.0,29.71,SW,225,0.0,0.0,82,0.00,,---,0.00,VWS V14.00,2013-07-23 05:58:00,
2013-07-23 02:03:00,71.8,66.0,29.71,SW,225,0.0,0.0,82,0.00,,---,0.00,VWS V14.00,2013-07-23 06:03:00,
2013-07-23 02:08:00,71.8,66.0,29.71,West,270,0.0,0.0,82,0.00,,---,0.00,VWS V14.00,2013-07-23 06:08:00,
2013-07-23 02:14:00,71.8,66.3,29.71,WNW,292,2.5,2.5,83,0.00,,---,0.00,VWS V14.00,2013-07-23 06:14:00,
2013-07-23 02:19:00,71.8,66.3,29.71,West,270,1.1,1.1,83,0.00,,---,0.00,VWS V14.00,2013-07-23 06:19:00,
2013-07-23 02:24:00,71.8,66.3,29.71,WSW,248,1.3,1.3,83,0.00,,---,0.00,VWS V14.00,2013-07-23 06:24:00,
2013-07-23 02:29:00,71.6,66.2,29.71,West,270,0.0,0.0,83,0.00,,---,0.00,VWS V14.00,2013-07-23 06:29:00,
2013-07-23 02:34:00,71.6,66.2,29.71,South,180,0.0,0.0,83,0.00,,---,0.00,VWS V14.00,2013-07-23 06:34:00,
2013-07-23 02:39:00,71.6,66.2,29.68,SW,225,0.0,0.0,83,0.00,,---,0.00,VWS V14.00,2013-07-23 06:39:00,
2013-07-23 02:44:00,71.6,66.2,29.68,West,270,0.0,1.6,83,0.00,,---,0.00,VWS V14.00,2013-07-23 06:44:00,
2013-07-23 02:49:00,71.4,66.3,29.71,SW,225,0.0,0.0,84,0.00,,---,0.00,VWS V14.00,2013-07-23 06:49:00,
2013-07-23 02:54:00,71.4,66.3,29.71,WSW,248,0.0,0.0,84,0.00,,---,0.00,VWS V14.00,2013-07-23 06:54:00,
2013-07-23 02:59:00,71.4,66.3,29.71,South,180,0.0,0.0,84,0.00,,---,0.00,VWS V14.00,2013-07-23 06:59:00,
2013-07-23 03:04:00,71.2,66.5,29.71,South,180,0.0,0.0,85,0.00,,---,0.00,VWS V14.00,2013-07-23 07:04:00,
2013-07-23 03:09:00,71.2,66.5,29.71,WSW,248,0.0,0.0,85,0.00,,---,0.00,VWS V14.00,2013-07-23 07:09:00,
2013-07-23 03:14:00,71.2,66.5,29.71,WSW,248,0.9,1.1,85,0.00,,---,0.00,VWS V14.00,2013-07-23 07:14:00,
2013-07-23 03:19:00,71.2,66.5,29.68,South,180,0.0,1.1,85,0.00,,---,0.00,VWS V14.00,2013-07-23 07:19:00,
2013-07-23 03:24:00,71.1,66.3,29.68,SW,225,0.0,0.0,85,0.00,,---,0.00,VWS V14.00,2013-07-23 07:24:00,
2013-07-23 03:29:00,71.1,66.3,29.68,SW,225,2.5,2.5,85,0.00,,---,0.00,VWS V14.00,2013-07-23 07:29:00,
2013-07-23 03:34:00,71.1,66.3,29.65,WSW,248,0.0,0.0,85,0.00,,---,0.00,VWS V14.00,2013-07-23 07:34:00,
2013-07-23 03:40:00,71.1,66.3,29.65,SSE,158,0.0,0.0,85,0.00,,---,0.00,VWS V14.00,2013-07-23 07:40:00,
2013-07-23 03:45:00,71.1,66.3,29.65,SSW,202,0.0,0.0,85,0.00,,---,0.00,VWS V14.00,2013-07-23 07:45:00,
2013-07-23 03:50:00,71.1,66.7,29.68,SW,225,0.0,0.0,86,0.00,,---,0.00,VWS V14.00,2013-07-23 07:50:00,
2013-07-23 03:55:00,71.1,66.7,29.68,WSW,248,0.0,0.0,86,0.00,,---,0.00,VWS V14.00,2013-07-23 07:55:00,
2013-07-23 04:00:00,71.1,66.7,29.68,WSW,248,0.0,1.3,86,0.00,,---,0.00,VWS V14.00,2013-07-23 08:00:00,
2013-07-23 04:05:00,71.1,66.7,29.65,West,270,0.9,2.2,86,0.00,,---,0.00,VWS V14.00,2013-07-23 08:05:00,
2013-07-23 04:10:00,71.1,66.7,29.65,SSE,158,0.0,0.9,86,0.00,,---,0.00,VWS V14.00,2013-07-23 08:10:00,
2013-07-23 04:15:00,71.1,67.0,29.65,SSW,202,0.0,0.9,87,0.00,,---,0.00,VWS V14.00,2013-07-23 08:15:00,
2013-07-23 04:20:00,71.1,67.0,29.65,SSW,202,0.0,0.9,87,0.00,,---,0.00,VWS V14.00,2013-07-23 08:20:00,
2013-07-23 04:25:00,71.1,67.0,29.65,WSW,248,1.6,1.6,87,0.00,,---,0.00,VWS V14.00,2013-07-23 08:25:00,
2013-07-23 04:30:00,71.1,67.0,29.65,South,180,0.0,0.0,87,0.00,,---,0.00,VWS V14.00,2013-07-23 08:30:00,
2013-07-23 04:35:00,71.1,67.0,29.65,SW,225,0.0,0.0,87,0.00,,---,0.00,VWS V14.00,2013-07-23 08:35:00,
2013-07-23 04:40:00,71.1,67.0,29.65,SSW,202,1.3,2.0,87,0.00,,---,0.00,VWS V14.00,2013-07-23 08:40:00,
2013-07-23 04:45:00,71.1,67.0,29.65,West,270,0.0,0.0,87,0.00,,---,0.00,VWS V14.00,2013-07-23 08:45:00,
2013-07-23 04:51:00,71.1,67.0,29.62,SSW,202,0.0,0.0,87,0.00,,---,0.00,VWS V14.00,2013-07-23 08:51:00,
2013-07-23 04:56:00,71.1,67.3,29.62,WNW,292,0.0,0.0,88,0.00,,---,0.00,VWS V14.00,2013-07-23 08:56:00,
2013-07-23 05:01:00,71.1,67.3,29.62,WSW,248,0.0,0.0,88,0.00,,---,0.00,VWS V14.00,2013-07-23 09:01:00,
2013-07-23 05:06:00,71.1,67.3,29.65,West,270,1.3,1.6,88,0.00,,---,0.00,VWS V14.00,2013-07-23 09:06:00,
2013-07-23 05:11:00,71.1,67.3,29.65,West,270,0.0,0.9,88,0.00,,---,0.00,VWS V14.00,2013-07-23 09:11:00,
2013-07-23 05:16:00,71.1,67.3,29.65,West,270,0.0,0.0,88,0.00,,---,0.00,VWS V14.00,2013-07-23 09:16:00,
2013-07-23 05:21:00,71.1,67.3,29.62,West,270,0.0,0.0,88,0.00,,---,0.00,VWS V14.00,2013-07-23 09:21:00,
2013-07-23 05:26:00,71.1,67.0,29.62,West,270,2.2,2.2,87,0.00,,---,0.00,VWS V14.00,2013-07-23 09:26:00,
2013-07-23 05:31:00,71.2,67.5,29.62,West,270,0.0,0.0,88,0.00,,---,0.00,VWS V14.00,2013-07-23 09:31:00,
2013-07-23 05:36:00,71.2,67.5,29.65,WNW,292,0.9,0.9,88,0.00,,---,0.00,VWS V14.00,2013-07-23 09:36:00,
2013-07-23 05:41:00,71.2,67.5,29.65,SSW,202,0.9,1.3,88,0.00,,---,0.00,VWS V14.00,2013-07-23 09:41:00,
2013-07-23 05:46:00,71.2,67.2,29.65,SSW,202,1.3,3.4,87,0.00,,---,0.00,VWS V14.00,2013-07-23 09:46:00,
2013-07-23 05:51:00,71.2,67.2,29.65,SW,225,2.7,2.7,87,0.00,,---,0.00,VWS V14.00,2013-07-23 09:51:00,
2013-07-23 05:56:00,71.2,67.2,29.65,South,180,0.0,0.0,87,0.00,,---,0.00,VWS V14.00,2013-07-23 09:56:00,
2013-07-23 06:01:00,71.2,67.2,29.65,SW,225,0.0,0.0,87,0.00,,---,0.00,VWS V14.00,2013-07-23 10:01:00,
2013-07-23 06:06:00,71.2,67.2,29.68,West,270,1.3,1.3,87,0.00,,---,0.00,VWS V14.00,2013-07-23 10:06:00,
2013-07-23 06:11:00,71.2,66.8,29.68,West,270,0.0,1.3,86,0.00,,---,0.00,VWS V14.00,2013-07-23 10:11:00,
2013-07-23 06:16:00,71.1,66.7,29.68,SSW,202,0.0,1.6,86,0.00,,---,0.00,VWS V14.00,2013-07-23 10:16:00,
2013-07-23 06:21:00,71.1,66.7,29.71,WSW,248,0.9,0.9,86,0.00,,---,0.00,VWS V14.00,2013-07-23 10:21:00,
2013-07-23 06:26:00,71.1,66.7,29.71,WSW,248,0.0,1.1,86,0.00,,---,0.00,VWS V14.00,2013-07-23 10:26:00,
2013-07-23 06:31:00,71.2,66.8,29.71,SW,225,0.0,0.0,86,0.00,,---,0.00,VWS V14.00,2013-07-23 10:31:00,
2013-07-23 06:36:00,71.1,66.7,29.68,SSW,202,0.0,0.0,86,0.00,,---,0.00,VWS V14.00,2013-07-23 10:36:00,
2013-07-23 06:42:00,71.1,66.7,29.68,South,180,0.0,0.0,86,0.00,,---,0.00,VWS V14.00,2013-07-23 10:42:00,
2013-07-23 06:47:00,70.9,66.5,29.68,South,180,0.0,0.0,86,0.00,,---,0.00,VWS V14.00,2013-07-23 10:47:00,
2013-07-23 06:52:00,70.7,66.7,29.68,South,180,0.0,0.0,87,0.00,,---,0.00,VWS V14.00,2013-07-23 10:52:00,
2013-07-23 06:57:00,70.7,66.7,29.68,South,180,0.0,0.0,87,0.00,,---,0.00,VWS V14.00,2013-07-23 10:57:00,
2013-07-23 07:02:00,70.7,67.0,29.68,South,180,0.0,0.0,88,0.00,,---,0.00,VWS V14.00,2013-07-23 11:02:00,
2013-07-23 07:07:00,70.7,67.0,29.71,South,180,0.0,0.0,88,0.00,,---,0.00,VWS V14.00,2013-07-23 11:07:00,
2013-07-23 07:12:00,70.7,67.0,29.71,South,180,0.0,0.0,88,0.00,,---,0.00,VWS V14.00,2013-07-23 11:12:00,
2013-07-23 07:17:00,70.7,67.0,29.71,South,180,0.0,0.0,88,0.00,,---,0.00,VWS V14.00,2013-07-23 11:17:00,
2013-07-23 07:22:00,70.7,67.0,29.71,South,180,0.0,0.0,88,0.00,,---,0.00,VWS V14.00,2013-07-23 11:22:00,
2013-07-23 07:27:00,70.7,67.0,29.71,South,180,0.0,0.0,88,0.00,,---,0.00,VWS V14.00,2013-07-23 11:27:00,
2013-07-23 07:32:00,70.7,67.0,29.71,South,180,0.0,0.0,88,0.00,,---,0.00,VWS V14.00,2013-07-23 11:32:00,
2013-07-23 07:37:00,70.5,66.8,29.71,SW,225,0.0,0.0,88,0.00,,---,0.00,VWS V14.00,2013-07-23 11:37:00,
2013-07-23 07:42:00,70.5,66.8,29.71,SW,225,0.0,0.0,88,0.00,,---,0.00,VWS V14.00,2013-07-23 11:42:00,
2013-07-23 07:47:00,70.3,66.3,29.71,SW,225,0.0,0.0,87,0.00,,---,0.00,VWS V14.00,2013-07-23 11:47:00,
2013-07-23 07:52:00,70.3,66.3,29.68,SW,225,0.9,0.9,87,0.00,,---,0.00,VWS V14.00,2013-07-23 11:52:00,
2013-07-23 07:57:00,70.3,66.3,29.68,SW,225,0.0,0.0,87,0.00,,---,0.00,VWS V14.00,2013-07-23 11:57:00,
2013-07-23 08:03:00,70.3,66.3,29.68,WSW,248,0.0,0.0,87,0.00,,---,0.00,VWS V14.00,2013-07-23 12:03:00,
2013-07-23 08:08:00,70.5,66.5,29.71,SW,225,0.0,0.0,87,0.00,,---,0.00,VWS V14.00,2013-07-23 12:08:00,
2013-07-23 08:13:00,70.9,66.5,29.71,WSW,248,0.0,1.3,86,0.00,,---,0.00,VWS V14.00,2013-07-23 12:13:00,
2013-07-23 08:18:00,71.4,67.0,29.71,West,270,1.1,2.7,86,0.00,,---,0.00,VWS V14.00,2013-07-23 12:18:00,
2013-07-23 08:23:00,72.1,67.0,29.68,NW,315,1.1,2.0,84,0.00,,---,0.00,VWS V14.00,2013-07-23 12:23:00,
2013-07-23 08:28:00,72.5,67.1,29.68,WSW,248,0.9,0.9,83,0.00,,---,0.00,VWS V14.00,2013-07-23 12:28:00,
2013-07-23 08:33:00,72.9,66.7,29.68,SW,225,0.0,0.9,81,0.00,,---,0.00,VWS V14.00,2013-07-23 12:33:00,
2013-07-23 08:38:00,73.2,67.1,29.68,SW,225,1.3,2.2,81,0.00,,---,0.00,VWS V14.00,2013-07-23 12:38:00,
2013-07-23 08:43:00,73.4,66.9,29.68,WSW,248,1.3,2.5,80,0.00,,---,0.00,VWS V14.00,2013-07-23 12:43:00,
2013-07-23 08:48:00,73.6,66.7,29.68,SW,225,0.9,1.3,79,0.00,,---,0.00,VWS V14.00,2013-07-23 12:48:00,
2013-07-23 08:53:00,73.8,66.5,29.71,West,270,1.3,2.5,78,0.00,,---,0.00,VWS V14.00,2013-07-23 12:53:00,
2013-07-23 08:58:00,74.1,66.8,29.71,NW,315,0.0,1.3,78,0.00,,---,0.00,VWS V14.00,2013-07-23 12:58:00,
2013-07-23 09:03:00,74.3,66.6,29.71,SSW,202,1.3,1.6,77,0.00,,---,0.00,VWS V14.00,2013-07-23 13:03:00,
2013-07-23 09:08:00,74.5,66.8,29.71,SE,135,1.3,2.5,77,0.00,,---,0.00,VWS V14.00,2013-07-23 13:08:00,
2013-07-23 09:13:00,74.5,66.4,29.71,West,270,1.3,2.0,76,0.00,,---,0.00,VWS V14.00,2013-07-23 13:13:00,
2013-07-23 09:18:00,74.8,66.8,29.71,SW,225,1.1,2.9,76,0.00,,---,0.00,VWS V14.00,2013-07-23 13:18:00,
2013-07-23 09:23:00,74.8,66.8,29.71,SW,225,2.2,2.2,76,0.00,,---,0.00,VWS V14.00,2013-07-23 13:23:00,
2013-07-23 09:28:00,75.0,66.6,29.71,WSW,248,0.0,0.0,75,0.00,,---,0.00,VWS V14.00,2013-07-23 13:28:00,
2013-07-23 09:33:00,75.2,66.3,29.71,West,270,1.1,1.6,74,0.00,,---,0.00,VWS V14.00,2013-07-23 13:33:00,
2013-07-23 09:39:00,75.2,66.3,29.68,WNW,292,1.6,1.6,74,0.00,,---,0.00,VWS V14.00,2013-07-23 13:39:00,
2013-07-23 09:44:00,75.4,66.1,29.68,NW,315,1.3,2.5,73,0.00,,---,0.00,VWS V14.00,2013-07-23 13:44:00,
2013-07-23 09:49:00,75.6,66.7,29.68,West,270,0.9,0.9,74,0.00,,---,0.00,VWS V14.00,2013-07-23 13:49:00,
2013-07-23 09:54:00,75.7,66.9,29.68,WSW,248,1.1,2.5,74,0.00,,---,0.00,VWS V14.00,2013-07-23 13:54:00,
2013-07-23 09:59:00,75.7,66.5,29.68,WNW,292,3.8,3.8,73,0.00,,---,0.00,VWS V14.00,2013-07-23 13:59:00,
2013-07-23 10:04:00,76.1,67.2,29.68,SSW,202,1.1,1.6,74,0.00,,---,0.00,VWS V14.00,2013-07-23 14:04:00,
2013-07-23 10:09:00,76.3,67.4,29.68,West,270,2.2,2.5,74,0.00,,---,0.00,VWS V14.00,2013-07-23 14:09:00,
2013-07-23 10:14:00,76.6,67.7,29.68,West,270,0.9,2.5,74,0.00,,---,0.00,VWS V14.00,2013-07-23 14:14:00,
2013-07-23 10:19:00,76.8,67.9,29.71,SW,225,1.6,2.7,74,0.00,,---,0.00,VWS V14.00,2013-07-23 14:19:00,
2013-07-23 10:24:00,76.8,67.5,29.71,SSW,202,4.3,4.3,73,0.00,,---,0.00,VWS V14.00,2013-07-23 14:24:00,
2013-07-23 10:29:00,76.8,67.1,29.71,WSW,248,1.1,4.9,72,0.00,,---,0.00,VWS V14.00,2013-07-23 14:29:00,
2013-07-23 10:34:00,76.8,66.3,29.71,WNW,292,2.7,2.7,70,0.00,,---,0.00,VWS V14.00,2013-07-23 14:34:00,
2013-07-23 10:40:00,77.2,66.7,29.71,NW,315,2.0,2.0,70,0.00,,---,0.00,VWS V14.00,2013-07-23 14:40:00,
2013-07-23 10:45:00,77.2,66.2,29.71,SSE,158,1.6,2.0,69,0.00,,---,0.00,VWS V14.00,2013-07-23 14:45:00,
2013-07-23 10:50:00,77.5,67.0,29.71,West,270,0.9,1.1,70,0.00,,---,0.00,VWS V14.00,2013-07-23 14:50:00,
2013-07-23 10:55:00,77.9,67.3,29.71,WSW,248,0.0,1.6,70,0.00,,---,0.00,VWS V14.00,2013-07-23 14:55:00,
2013-07-23 11:00:00,78.3,67.7,29.71,North,0,2.5,2.5,70,0.00,,---,0.00,VWS V14.00,2013-07-23 15:00:00,
2013-07-23 11:05:00,78.4,67.4,29.71,SW,225,1.3,2.5,69,0.00,,---,0.00,VWS V14.00,2013-07-23 15:05:00,
2013-07-23 11:10:00,78.4,67.4,29.71,SSW,202,2.2,2.7,69,0.00,,---,0.00,VWS V14.00,2013-07-23 15:10:00,
2013-07-23 11:15:00,78.6,67.2,29.71,WSW,248,1.3,2.0,68,0.00,,---,0.00,VWS V14.00,2013-07-23 15:15:00,
2013-07-23 11:20:00,78.8,67.4,29.71,West,270,1.1,1.1,68,0.00,,---,0.00,VWS V14.00,2013-07-23 15:20:00,
2013-07-23 11:25:00,79.0,67.5,29.71,WSW,248,2.7,3.6,68,0.00,,---,0.00,VWS V14.00,2013-07-23 15:25:00,
2013-07-23 11:30:00,79.2,67.7,29.71,West,270,1.6,1.6,68,0.00,,---,0.00,VWS V14.00,2013-07-23 15:30:00,
2013-07-23 11:36:00,79.5,68.0,29.71,North,0,2.2,2.2,68,0.00,,---,0.00,VWS V14.00,2013-07-23 15:36:00,
2013-07-23 11:41:00,79.9,68.4,29.71,SSW,202,0.9,1.1,68,0.00,,---,0.00,VWS V14.00,2013-07-23 15:41:00,
2013-07-23 11:46:00,79.7,67.8,29.71,WSW,248,1.1,2.9,67,0.00,,---,0.00,VWS V14.00,2013-07-23 15:46:00,
2013-07-23 11:51:00,80.2,68.7,29.71,West,270,1.1,3.6,68,0.00,,---,0.00,VWS V14.00,2013-07-23 15:51:00,
2013-07-23 11:56:00,80.4,68.9,29.71,ENE,68,0.0,2.5,68,0.00,,---,0.00,VWS V14.00,2013-07-23 15:56:00,
2013-07-23 12:01:00,80.8,68.8,29.71,West,270,2.7,2.7,67,0.00,,---,0.00,VWS V14.00,2013-07-23 16:01:00,
2013-07-23 12:06:00,80.6,68.2,29.71,NW,315,2.7,3.6,66,0.00,,---,0.00,VWS V14.00,2013-07-23 16:06:00,
2013-07-23 12:11:00,80.8,68.8,29.71,WSW,248,2.7,2.7,67,0.00,,---,0.00,VWS V14.00,2013-07-23 16:11:00,
2013-07-23 12:16:00,81.1,68.7,29.71,West,270,2.9,2.9,66,0.00,,---,0.00,VWS V14.00,2013-07-23 16:16:00,
2013-07-23 12:21:00,81.7,69.2,29.71,West,270,1.1,2.7,66,0.00,,---,0.00,VWS V14.00,2013-07-23 16:21:00,
2013-07-23 12:26:00,81.7,69.2,29.71,WNW,292,0.0,3.4,66,0.00,,---,0.00,VWS V14.00,2013-07-23 16:26:00,
2013-07-23 12:31:00,81.3,68.4,29.71,WNW,292,2.0,2.0,65,0.00,,---,0.00,VWS V14.00,2013-07-23 16:31:00,
2013-07-23 12:36:00,80.6,68.2,29.71,South,180,0.0,1.1,66,0.00,,---,0.00,VWS V14.00,2013-07-23 16:36:00,
2013-07-23 12:41:00,81.3,68.9,29.71,North,0,1.6,1.6,66,0.00,,---,0.00,VWS V14.00,2013-07-23 16:41:00,
2013-07-23 12:47:00,81.3,68.4,29.71,NW,315,1.6,2.7,65,0.00,,---,0.00,VWS V14.00,2013-07-23 16:47:00,
2013-07-23 12:52:00,80.8,67.5,29.71,NNE,22,2.2,2.7,64,0.00,,---,0.00,VWS V14.00,2013-07-23 16:52:00,
2013-07-23 12:57:00,81.1,67.8,29.71,West,270,3.4,3.4,64,0.00,,---,0.00,VWS V14.00,2013-07-23 16:57:00,
2013-07-23 13:02:00,81.1,67.8,29.71,WSW,248,4.3,4.3,64,0.00,,---,0.00,VWS V14.00,2013-07-23 17:02:00,
2013-07-23 13:07:00,81.3,67.5,29.71,SSW,202,3.4,6.3,63,0.00,,---,0.00,VWS V14.00,2013-07-23 17:07:00,
2013-07-23 13:12:00,81.7,68.3,29.71,SSE,158,1.3,2.0,64,0.00,,---,0.00,VWS V14.00,2013-07-23 17:12:00,
2013-07-23 13:17:00,81.9,68.0,29.71,WSW,248,2.7,5.4,63,0.00,,---,0.00,VWS V14.00,2013-07-23 17:17:00,
2013-07-23 13:22:00,81.5,68.2,29.71,SSW,202,1.6,2.9,64,0.00,,---,0.00,VWS V14.00,2013-07-23 17:22:00,
2013-07-23 13:27:00,81.7,67.4,29.71,WSW,248,0.0,0.0,62,0.00,,---,0.00,VWS V14.00,2013-07-23 17:27:00,
2013-07-23 13:32:00,82.0,67.8,29.71,NNE,22,2.5,2.7,62,0.00,,---,0.00,VWS V14.00,2013-07-23 17:32:00,
2013-07-23 13:37:00,81.9,67.6,29.68,West,270,2.5,2.5,62,0.00,,---,0.00,VWS V14.00,2013-07-23 17:37:00,
2013-07-23 13:42:00,81.3,67.1,29.68,WSW,248,3.8,3.8,62,0.00,,---,0.00,VWS V14.00,2013-07-23 17:42:00,